createdAt,value
2019-03-08T00:00:52.668Z,0.00
2019-03-08T00:01:52.597Z,0.00
2019-03-08T00:02:52.693Z,0.00
2019-03-08T00:03:52.553Z,0.00
2019-03-08T00:04:52.628Z,0.00
2019-03-08T00:05:52.482Z,0.00
2019-03-08T00:06:52.500Z,0.00
2019-03-08T00:07:52.452Z,0.00
2019-03-08T00:08:52.418Z,0.00
2019-03-08T00:09:52.383Z,0.00
2019-03-08T00:10:52.425Z,0.00
2019-03-08T00:11:52.303Z,0.00
2019-03-08T00:12:52.350Z,0.00
2019-03-08T00:13:52.265Z,0.00
2019-03-08T00:14:52.262Z,0.00
2019-03-08T00:15:52.231Z,0.00
2019-03-08T00:16:52.290Z,0.00
2019-03-08T00:17:52.276Z,0.00
2019-03-08T00:19:10.262Z,0.00
2019-03-08T00:19:52.098Z,0.00
2019-03-08T00:21:52.036Z,0.00
2019-03-08T00:23:06.627Z,0.00
2019-03-08T00:23:51.970Z,0.00
2019-03-08T00:24:53.073Z,0.00
2019-03-08T00:25:51.909Z,0.00
2019-03-08T00:26:53.936Z,0.00
2019-03-08T00:27:51.855Z,0.00
2019-03-08T02:28:46.013Z,0.00
2019-03-08T02:29:44.164Z,0.00
2019-03-08T02:30:44.141Z,0.00
2019-03-08T02:31:44.099Z,0.00
2019-03-08T02:32:44.376Z,0.00
2019-03-08T02:33:44.033Z,0.00
2019-03-08T02:34:44.022Z,0.00
2019-03-08T02:35:43.975Z,0.00
2019-03-08T02:36:43.966Z,0.00
2019-03-08T02:37:43.939Z,0.00
2019-03-08T02:38:43.883Z,0.00
2019-03-08T02:39:43.900Z,0.00
2019-03-08T02:40:43.897Z,0.00
2019-03-08T02:41:43.805Z,0.00
2019-03-08T02:42:43.775Z,0.00
2019-03-08T02:43:43.742Z,0.00
2019-03-08T02:44:43.710Z,0.00
2019-03-08T02:45:43.694Z,0.00
2019-03-08T02:46:43.671Z,0.00
2019-03-08T02:47:43.624Z,0.00
2019-03-08T02:48:43.618Z,0.00
2019-03-08T02:49:43.597Z,0.00
2019-03-08T02:50:43.539Z,0.00
2019-03-08T02:51:43.509Z,0.00
2019-03-08T02:52:43.496Z,0.00
2019-03-08T02:53:43.467Z,0.00
2019-03-08T02:54:43.494Z,0.00
2019-03-08T02:55:43.409Z,0.00
2019-03-08T02:56:43.390Z,0.00
2019-03-08T02:57:43.344Z,0.00
2019-03-08T02:58:43.306Z,0.00
2019-03-08T02:59:43.334Z,0.00
2019-03-08T03:00:43.278Z,0.00
2019-03-08T03:01:43.229Z,0.00
2019-03-08T03:02:43.288Z,0.00
2019-03-08T03:03:43.178Z,0.00
2019-03-08T03:04:43.127Z,0.00
2019-03-08T03:05:43.098Z,0.00
2019-03-08T03:06:43.105Z,0.00
2019-03-08T03:07:43.045Z,0.00
2019-03-08T03:08:43.040Z,0.00
2019-03-08T03:09:43.008Z,0.00
2019-03-08T03:10:42.963Z,0.00
2019-03-08T03:11:43.097Z,0.00
2019-03-08T03:12:42.914Z,0.00
2019-03-08T03:13:44.955Z,0.00
2019-03-08T03:14:42.840Z,0.00
2019-03-08T03:15:42.928Z,0.00
2019-03-08T03:16:42.798Z,0.00
2019-03-08T03:17:43.916Z,0.00
2019-03-08T03:18:42.798Z,0.00
2019-03-08T03:19:42.710Z,0.00
2019-03-08T03:20:42.665Z,0.00
2019-03-08T03:21:42.653Z,0.00
2019-03-08T03:22:42.604Z,0.00
2019-03-08T03:23:42.675Z,0.00
2019-03-08T03:24:42.541Z,0.00
2019-03-08T03:25:42.614Z,0.00
2019-03-08T03:26:42.488Z,0.00
2019-03-08T03:27:42.525Z,0.00
2019-03-08T03:28:42.445Z,0.00
2019-03-08T03:29:42.505Z,0.00
2019-03-08T03:30:42.371Z,0.00
2019-03-08T03:31:49.089Z,0.00
2019-03-08T03:32:42.337Z,0.00
2019-03-08T03:33:42.326Z,0.00
2019-03-08T03:34:42.270Z,0.00
2019-03-08T03:35:42.245Z,0.00
2019-03-08T03:36:42.234Z,0.00
2019-03-08T03:37:42.235Z,0.00
2019-03-08T03:38:42.139Z,0.00
2019-03-08T03:39:42.159Z,0.00
2019-03-08T03:40:42.119Z,0.00
2019-03-08T03:41:42.088Z,0.00
2019-03-08T03:42:42.029Z,0.00
2019-03-08T03:43:42.105Z,0.00
2019-03-08T03:44:41.942Z,0.00
2019-03-08T03:45:42.060Z,0.00
2019-03-08T03:46:41.892Z,0.00
2019-03-08T03:47:41.946Z,0.00
2019-03-08T03:48:41.925Z,0.00
2019-03-08T03:49:41.836Z,0.00
2019-03-08T03:50:41.782Z,0.00
2019-03-08T03:51:41.860Z,0.00
2019-03-08T03:52:41.718Z,0.00
2019-03-08T03:53:41.759Z,0.00
2019-03-08T03:54:41.685Z,0.00
2019-03-08T03:55:41.669Z,0.00
2019-03-08T03:56:41.654Z,0.00
2019-03-08T04:00:53.772Z,0.00
2019-03-08T04:01:58.808Z,0.00
2019-03-08T04:02:52.137Z,0.00
2019-03-08T04:03:52.164Z,0.00
2019-03-08T04:04:52.054Z,0.00
2019-03-08T04:05:59.850Z,0.00
2019-03-08T04:06:51.980Z,0.00
2019-03-08T04:18:30.881Z,0.00
2019-03-08T04:19:29.557Z,0.00
2019-03-08T04:20:29.228Z,0.00
2019-03-08T04:21:29.168Z,0.00
2019-03-08T04:22:29.340Z,0.00
2019-03-08T04:23:29.097Z,0.00
2019-03-08T04:24:29.163Z,0.00
2019-03-08T04:25:29.049Z,0.00
2019-03-08T04:26:29.012Z,0.00
2019-03-08T04:27:29.029Z,0.00
2019-03-08T04:28:28.989Z,0.00
2019-03-08T04:29:28.925Z,0.00
2019-03-08T04:30:28.891Z,0.00
2019-03-08T04:31:28.893Z,0.00
2019-03-08T04:32:28.962Z,0.00
2019-03-08T04:33:28.814Z,0.00
2019-03-08T04:34:28.778Z,0.00
2019-03-08T04:35:28.740Z,0.00
2019-03-08T04:36:30.282Z,0.00
2019-03-08T04:37:28.713Z,0.00
2019-03-08T04:38:28.675Z,0.00
2019-03-08T04:39:28.715Z,0.00
2019-03-08T04:40:28.660Z,0.00
2019-03-08T04:41:28.589Z,0.00
2019-03-08T04:42:28.547Z,0.00
2019-03-08T04:43:28.517Z,0.00
2019-03-08T04:44:28.469Z,0.00
2019-03-08T04:45:28.439Z,0.00
2019-03-08T04:46:28.485Z,0.00
2019-03-08T04:47:28.408Z,0.00
2019-03-08T04:48:28.360Z,0.00
2019-03-08T04:49:28.322Z,0.00
2019-03-08T04:50:28.319Z,0.00
2019-03-08T04:51:28.266Z,0.00
2019-03-08T04:52:28.237Z,0.00
2019-03-08T04:53:28.223Z,0.00
2019-03-08T04:54:28.209Z,0.00
2019-03-08T04:55:28.171Z,0.00
2019-03-08T04:56:28.153Z,0.00
2019-03-08T04:57:28.091Z,0.00
2019-03-08T04:58:28.080Z,0.00
2019-03-08T04:59:28.038Z,0.00
2019-03-08T05:00:28.089Z,0.00
2019-03-08T05:01:27.980Z,0.00
2019-03-08T05:02:27.947Z,0.00
2019-03-08T05:03:30.087Z,0.00
2019-03-08T05:04:27.886Z,0.00
2019-03-08T05:05:48.913Z,0.00
2019-03-08T05:06:27.856Z,0.00
2019-03-08T05:08:27.842Z,0.00
2019-03-08T05:09:48.809Z,0.00
2019-03-08T05:10:27.717Z,0.00
2019-03-08T05:11:35.422Z,0.00
2019-03-08T05:12:27.682Z,0.00
2019-03-08T05:13:42.500Z,0.00
2019-03-08T05:14:27.639Z,0.00
2019-03-08T05:16:27.543Z,0.00
2019-03-08T05:17:28.640Z,0.00
2019-03-08T05:18:27.505Z,0.00
2019-03-08T05:19:29.562Z,0.00
2019-03-08T05:20:27.425Z,0.00
2019-03-08T05:21:28.421Z,0.00
2019-03-08T05:22:27.367Z,0.00
2019-03-08T05:23:27.484Z,0.00
2019-03-08T05:24:27.300Z,0.00
2019-03-08T05:25:28.336Z,0.00
2019-03-08T05:26:27.296Z,0.00
2019-03-08T05:27:27.221Z,0.00
2019-03-08T05:28:27.237Z,0.00
2019-03-08T05:29:27.251Z,0.00
2019-03-08T05:30:27.112Z,0.00
2019-03-08T05:31:27.199Z,0.00
2019-03-08T05:32:27.075Z,0.00
2019-03-08T05:33:27.081Z,0.00
2019-03-08T05:34:27.003Z,0.00
2019-03-08T05:35:27.100Z,0.00
2019-03-08T05:36:26.938Z,0.00
2019-03-08T05:37:26.988Z,0.00
2019-03-08T05:38:26.887Z,4.00
2019-03-08T05:39:26.980Z,4.00
2019-03-08T05:40:26.831Z,0.00
2019-03-08T05:41:26.827Z,0.00
2019-03-08T05:42:26.761Z,4.00
2019-03-08T05:43:26.869Z,4.00
2019-03-08T05:44:26.707Z,4.00
2019-03-08T05:45:26.867Z,4.00
2019-03-08T05:46:26.674Z,4.00
2019-03-08T05:47:26.663Z,8.00
2019-03-08T05:48:26.581Z,8.00
2019-03-08T05:49:26.669Z,8.00
2019-03-08T05:50:26.540Z,8.00
2019-03-08T05:51:26.587Z,12.00
2019-03-08T05:52:26.466Z,16.00
2019-03-08T05:53:26.492Z,16.00
2019-03-08T05:54:26.422Z,16.00
2019-03-08T05:55:26.512Z,20.00
2019-03-08T05:56:26.346Z,20.00
2019-03-08T05:57:26.393Z,16.00
2019-03-08T05:58:26.287Z,20.00
2019-03-08T05:59:26.311Z,20.00
2019-03-08T06:00:32.073Z,20.00
2019-03-08T06:01:26.222Z,24.00
2019-03-08T06:02:26.176Z,16.00
2019-03-08T06:03:26.226Z,20.00
2019-03-08T06:04:26.108Z,24.00
2019-03-08T06:05:26.162Z,24.00
2019-03-08T06:06:26.181Z,32.00
2019-03-08T06:07:26.053Z,32.00
2019-03-08T06:08:25.984Z,44.00
2019-03-08T06:09:26.083Z,68.00
2019-03-08T06:10:25.934Z,68.00
2019-03-08T06:11:25.996Z,56.00
2019-03-08T06:12:25.871Z,40.00
2019-03-08T06:13:25.853Z,44.00
2019-03-08T06:14:25.811Z,44.00
2019-03-08T06:15:25.784Z,40.00
2019-03-08T06:16:25.748Z,44.00
2019-03-08T06:17:25.779Z,84.00
2019-03-08T06:18:25.722Z,84.00
2019-03-08T06:19:26.745Z,112.00
2019-03-08T06:20:25.649Z,84.00
2019-03-08T06:21:27.731Z,60.00
2019-03-08T06:22:25.652Z,48.00
2019-03-08T06:24:01.522Z,52.00
2019-03-08T06:24:25.512Z,48.00
2019-03-08T06:25:25.501Z,52.00
2019-03-08T06:26:25.470Z,64.00
2019-03-08T06:27:32.470Z,60.00
2019-03-08T06:28:25.398Z,108.00
2019-03-08T06:29:27.446Z,196.00
2019-03-08T06:30:25.339Z,256.00
2019-03-08T06:31:25.310Z,248.00
2019-03-08T06:32:34.019Z,216.00
2019-03-08T06:33:25.249Z,212.00
2019-03-08T06:34:39.981Z,228.00
2019-03-08T06:35:25.194Z,216.00
2019-03-08T06:36:33.057Z,220.00
2019-03-08T06:37:25.128Z,244.00
2019-03-08T06:38:25.158Z,252.00
2019-03-08T06:39:25.055Z,172.00
2019-03-08T06:40:25.060Z,192.00
2019-03-08T06:41:25.005Z,220.00
2019-03-08T06:42:25.096Z,252.00
2019-03-08T06:43:24.938Z,260.00
2019-03-08T06:44:25.992Z,272.00
2019-03-08T06:45:24.888Z,268.00
2019-03-08T06:46:25.942Z,244.00
2019-03-08T06:47:24.824Z,204.00
2019-03-08T06:58:57.086Z,412.00
2019-03-08T06:59:55.549Z,368.00
2019-03-08T07:00:55.488Z,340.00
2019-03-08T07:01:55.567Z,380.00
2019-03-08T07:02:55.435Z,452.00
2019-03-08T07:03:55.411Z,540.00
2019-03-08T07:04:55.415Z,520.00
2019-03-08T07:05:55.404Z,576.00
2019-03-08T07:06:55.316Z,552.00
2019-03-08T07:07:55.283Z,668.00
2019-03-08T07:08:55.306Z,748.00
2019-03-08T07:09:55.229Z,716.00
2019-03-08T07:10:55.192Z,728.00
2019-03-08T07:11:55.173Z,732.00
2019-03-08T07:13:02.823Z,764.00
2019-03-08T07:13:55.120Z,816.00
2019-03-08T07:14:55.139Z,868.00
2019-03-08T07:15:55.048Z,896.00
2019-03-08T07:16:55.050Z,940.00
2019-03-08T07:17:54.992Z,1008.00
2019-03-08T07:18:57.016Z,1088.00
2019-03-08T07:19:54.943Z,1148.00
2019-03-08T07:20:54.977Z,1260.00
2019-03-08T07:21:54.868Z,1292.00
2019-03-08T07:22:54.832Z,1224.00
2019-03-08T07:23:54.910Z,936.00
2019-03-08T07:24:54.773Z,916.00
2019-03-08T07:25:54.804Z,860.00
2019-03-08T07:26:54.719Z,796.00
2019-03-08T07:27:55.737Z,732.00
2019-03-08T07:28:54.714Z,696.00
2019-03-08T07:29:54.729Z,696.00
2019-03-08T07:30:57.955Z,688.00
2019-03-08T07:31:54.641Z,700.00
2019-03-08T07:32:54.541Z,716.00
2019-03-08T07:33:54.552Z,748.00
2019-03-08T07:34:54.475Z,792.00
2019-03-08T07:36:02.152Z,856.00
2019-03-08T07:36:54.439Z,912.00
2019-03-08T07:37:54.391Z,968.00
2019-03-08T07:38:54.376Z,1076.00
2019-03-08T07:39:54.441Z,1268.00
2019-03-08T07:40:54.315Z,1296.00
2019-03-08T07:42:23.253Z,1292.00
2019-03-08T07:42:54.276Z,1360.00
2019-03-08T07:43:54.268Z,1348.00
2019-03-08T07:44:54.326Z,1248.00
2019-03-08T07:45:54.203Z,1164.00
2019-03-08T08:43:38.321Z,4284.00
2019-03-08T08:44:35.554Z,3880.00
2019-03-08T08:45:35.472Z,3200.00
2019-03-08T08:46:35.741Z,2436.00
2019-03-08T08:47:35.381Z,1872.00
2019-03-08T08:48:35.376Z,1544.00
2019-03-08T08:49:35.348Z,1908.00
2019-03-08T08:50:35.757Z,1676.00
2019-03-08T08:51:35.274Z,1504.00
2019-03-08T08:52:35.281Z,1652.00
2019-03-08T08:53:35.218Z,1692.00
2019-03-08T08:54:35.199Z,1740.00
2019-03-08T08:55:35.238Z,1464.00
2019-03-08T08:56:35.129Z,992.00
2019-03-08T08:57:35.099Z,572.00
2019-03-08T08:58:35.083Z,552.00
2019-03-08T08:59:35.069Z,644.00
2019-03-08T09:00:35.042Z,700.00
2019-03-08T09:01:35.034Z,824.00
2019-03-08T09:02:34.958Z,1024.00
2019-03-08T09:03:34.939Z,912.00
2019-03-08T09:04:34.947Z,848.00
2019-03-08T09:05:34.864Z,1144.00
2019-03-08T09:06:34.838Z,1656.00
2019-03-08T09:07:34.867Z,1556.00
2019-03-08T09:08:34.766Z,1264.00
2019-03-08T09:09:34.751Z,1168.00
2019-03-08T09:10:34.720Z,1056.00
2019-03-08T09:11:43.736Z,868.00
2019-03-08T09:12:34.661Z,752.00
2019-03-08T09:13:34.658Z,676.00
2019-03-08T09:14:34.642Z,672.00
2019-03-08T09:15:34.642Z,612.00
2019-03-08T09:16:34.575Z,928.00
2019-03-08T09:17:34.721Z,1124.00
2019-03-08T09:18:34.485Z,1136.00
2019-03-08T09:19:34.480Z,1232.00
2019-03-08T09:20:34.523Z,1680.00
2019-03-08T09:22:12.323Z,2652.00
2019-03-08T09:22:34.447Z,3000.00
2019-03-08T09:23:34.530Z,2540.00
2019-03-08T09:25:11.393Z,2116.00
2019-03-08T09:25:34.461Z,2312.00
2019-03-08T09:26:34.273Z,2356.00
2019-03-08T09:27:34.360Z,2320.00
2019-03-08T09:28:34.228Z,2284.00
2019-03-08T09:29:40.995Z,2328.00
2019-03-08T09:30:34.124Z,2316.00
2019-03-08T09:31:34.190Z,1988.00
2019-03-08T09:32:34.075Z,1776.00
2019-03-08T09:33:34.023Z,1944.00
2019-03-08T09:34:33.997Z,1752.00
2019-03-08T09:35:33.974Z,1308.00
2019-03-08T09:36:33.947Z,1088.00
2019-03-08T09:37:34.009Z,1040.00
2019-03-08T09:38:33.884Z,1068.00
2019-03-08T09:39:34.017Z,1228.00
2019-03-08T09:40:33.833Z,1300.00
2019-03-08T09:41:33.829Z,1296.00
2019-03-08T09:42:33.829Z,1292.00
2019-03-08T09:43:33.764Z,1288.00
2019-03-08T09:44:33.704Z,1284.00
2019-03-08T09:45:33.699Z,1280.00
2019-03-08T09:46:33.749Z,1284.00
2019-03-08T09:47:33.620Z,1300.00
2019-03-08T09:48:33.637Z,1284.00
2019-03-08T09:49:33.679Z,1272.00
2019-03-08T09:50:33.571Z,1288.00
2019-03-08T09:51:33.507Z,1284.00
2019-03-08T09:52:33.611Z,1284.00
2019-03-08T09:53:33.438Z,1284.00
2019-03-08T09:54:33.402Z,1164.00
2019-03-08T09:55:33.420Z,1276.00
2019-03-08T09:56:33.387Z,1280.00
2019-03-08T09:57:33.378Z,1308.00
2019-03-08T09:58:33.361Z,1336.00
2019-03-08T09:59:34.417Z,1348.00
2019-03-08T10:00:33.267Z,1348.00
2019-03-08T10:01:33.281Z,1328.00
2019-03-08T10:02:33.192Z,1316.00
2019-03-08T10:03:33.265Z,1136.00
2019-03-08T10:04:33.129Z,1368.00
2019-03-08T10:05:34.179Z,1412.00
2019-03-08T10:06:33.084Z,1304.00
2019-03-08T10:07:35.187Z,1380.00
2019-03-08T10:08:33.014Z,1384.00
2019-03-08T10:09:33.085Z,1244.00
2019-03-08T10:10:32.938Z,1436.00
2019-03-08T10:11:32.925Z,1616.00
2019-03-08T10:12:32.870Z,1708.00
2019-03-08T10:13:32.900Z,1248.00
2019-03-08T10:14:32.824Z,1360.00
2019-03-08T10:15:32.814Z,1308.00
2019-03-08T10:16:32.767Z,1068.00
2019-03-08T10:17:32.826Z,1056.00
2019-03-08T10:18:32.722Z,1040.00
2019-03-08T10:19:32.732Z,1148.00
2019-03-08T10:20:32.652Z,1384.00
2019-03-08T10:21:33.681Z,1360.00
2019-03-08T10:22:32.609Z,1124.00
2019-03-08T10:23:32.671Z,1412.00
2019-03-08T10:24:32.556Z,1452.00
2019-03-08T10:25:34.616Z,1444.00
2019-03-08T10:26:32.547Z,1424.00
2019-03-08T10:27:38.052Z,1172.00
2019-03-08T10:28:32.480Z,1144.00
2019-03-08T10:29:32.405Z,1312.00
2019-03-08T10:30:33.438Z,1612.00
2019-03-08T10:31:32.386Z,1868.00
2019-03-08T10:32:37.232Z,1872.00
2019-03-08T10:33:32.361Z,3488.00
2019-03-08T10:34:32.429Z,3148.00
2019-03-08T10:35:32.250Z,2236.00
2019-03-08T10:36:33.313Z,1900.00
2019-03-08T10:37:32.169Z,2336.00
2019-03-08T10:38:34.206Z,3284.00
2019-03-08T10:39:32.120Z,3660.00
2019-03-08T10:40:32.117Z,3268.00
2019-03-08T10:41:32.068Z,3132.00
2019-03-08T10:42:32.068Z,2396.00
2019-03-08T10:43:32.090Z,1676.00
2019-03-08T10:44:31.998Z,1840.00
2019-03-08T10:45:31.946Z,2408.00
2019-03-08T10:46:31.999Z,3096.00
2019-03-08T10:47:31.893Z,3672.00
2019-03-08T10:48:31.904Z,3680.00
2019-03-08T10:49:31.957Z,3140.00
2019-03-08T10:50:31.775Z,2740.00
2019-03-08T10:51:31.740Z,2508.00
2019-03-08T10:52:31.861Z,2548.00
2019-03-08T10:53:31.694Z,2116.00
2019-03-08T10:54:31.760Z,2256.00
2019-03-08T10:55:31.651Z,3240.00
2019-03-08T10:56:31.659Z,3688.00
2019-03-08T10:57:31.593Z,3716.00
2019-03-08T10:58:33.683Z,3404.00
2019-03-08T10:59:31.567Z,3664.00
2019-03-08T11:00:33.575Z,3380.00
2019-03-08T11:01:31.468Z,3344.00
2019-03-08T11:02:31.520Z,3672.00
2019-03-08T11:03:31.405Z,3564.00
2019-03-08T11:04:32.440Z,3100.00
2019-03-08T11:05:31.341Z,3124.00
2019-03-08T11:06:31.342Z,2820.00
2019-03-08T11:07:31.408Z,2920.00
2019-03-08T11:08:31.256Z,3348.00
2019-03-08T11:09:31.374Z,3412.00
2019-03-08T11:10:31.201Z,3060.00
2019-03-08T11:11:31.284Z,2836.00
2019-03-08T11:12:31.164Z,2776.00
2019-03-08T11:13:31.123Z,2816.00
2019-03-08T11:14:31.183Z,2972.00
2019-03-08T11:15:31.055Z,3068.00
2019-03-08T11:16:31.139Z,3064.00
2019-03-08T11:17:31.012Z,3064.00
2019-03-08T11:18:31.000Z,3020.00
2019-03-08T11:19:30.938Z,2968.00
2019-03-08T11:20:31.002Z,2856.00
2019-03-08T11:21:31.250Z,2724.00
2019-03-08T11:22:30.923Z,2248.00
2019-03-08T11:23:30.817Z,1732.00
2019-03-08T11:24:30.783Z,1696.00
2019-03-08T11:25:34.957Z,1712.00
2019-03-08T11:26:30.840Z,2724.00
2019-03-08T11:27:30.818Z,3248.00
2019-03-08T11:28:30.678Z,2608.00
2019-03-08T11:29:30.647Z,2156.00
2019-03-08T11:30:30.655Z,1884.00
2019-03-08T11:31:30.588Z,1776.00
2019-03-08T11:32:30.674Z,1876.00
2019-03-08T11:33:30.528Z,1772.00
2019-03-08T11:34:30.615Z,1440.00
2019-03-08T11:35:30.489Z,1492.00
2019-03-08T11:36:30.497Z,2016.00
2019-03-08T11:37:30.456Z,1444.00
2019-03-08T11:38:30.499Z,1500.00
2019-03-08T11:39:30.381Z,2544.00
2019-03-08T11:40:30.441Z,2800.00
2019-03-08T11:41:30.328Z,2984.00
2019-03-08T11:42:30.306Z,3044.00
2019-03-08T11:43:30.440Z,3488.00
2019-03-08T11:44:30.200Z,3716.00
2019-03-08T11:45:30.185Z,4200.00
2019-03-08T11:46:30.167Z,3460.00
2019-03-08T11:47:30.385Z,2600.00
2019-03-08T11:48:30.135Z,2720.00
2019-03-08T11:49:30.074Z,2820.00
2019-03-08T11:50:30.062Z,2836.00
2019-03-08T11:51:30.048Z,2632.00
2019-03-08T11:52:30.105Z,2276.00
2019-03-08T11:53:29.996Z,2204.00
2019-03-08T11:54:30.020Z,2156.00
2019-03-08T11:55:29.994Z,1820.00
2019-03-08T11:56:29.936Z,1956.00
2019-03-08T11:57:29.854Z,2304.00
2019-03-08T11:58:29.821Z,2880.00
2019-03-08T11:59:29.791Z,3012.00
2019-03-08T12:00:29.771Z,2800.00
2019-03-08T12:01:29.743Z,2424.00
2019-03-08T12:02:37.522Z,2332.00
2019-03-08T12:03:29.689Z,1828.00
2019-03-08T12:04:29.782Z,1980.00
2019-03-08T12:05:29.633Z,1812.00
2019-03-08T12:06:29.601Z,1860.00
2019-03-08T12:07:29.592Z,2332.00
2019-03-08T12:08:29.552Z,2508.00
2019-03-08T12:09:29.496Z,2084.00
2019-03-08T12:10:29.487Z,2236.00
2019-03-08T12:11:29.475Z,2152.00
2019-03-08T12:12:29.525Z,1492.00
2019-03-08T12:13:29.404Z,1336.00
2019-03-08T12:14:29.418Z,1316.00
2019-03-08T12:15:29.325Z,1428.00
2019-03-08T12:16:29.341Z,1900.00
2019-03-08T12:17:29.310Z,1832.00
2019-03-08T12:18:29.411Z,1968.00
2019-03-08T12:19:29.224Z,1872.00
2019-03-08T12:20:29.218Z,2736.00
2019-03-08T12:21:29.179Z,2460.00
2019-03-08T12:22:29.158Z,2532.00
2019-03-08T12:23:29.115Z,2716.00
2019-03-08T12:24:29.083Z,3492.00
2019-03-08T12:25:29.072Z,3872.00
2019-03-08T12:26:29.036Z,3396.00
2019-03-08T12:27:28.974Z,3284.00
2019-03-08T12:28:28.968Z,4208.00
2019-03-08T12:29:28.964Z,4104.00
2019-03-08T12:30:28.898Z,3552.00
2019-03-08T12:31:28.902Z,4296.00
2019-03-08T12:32:28.869Z,2672.00
2019-03-08T12:33:28.862Z,2848.00
2019-03-08T12:34:28.910Z,3480.00
2019-03-08T12:35:28.848Z,3744.00
2019-03-08T12:36:28.748Z,3680.00
2019-03-08T12:37:28.759Z,3864.00
2019-03-08T12:38:28.713Z,3492.00
2019-03-08T12:39:28.678Z,3256.00
2019-03-08T12:40:28.673Z,2600.00
2019-03-08T12:41:28.609Z,2108.00
2019-03-08T12:42:28.601Z,2104.00
2019-03-08T12:43:28.532Z,2288.00
2019-03-08T12:44:28.609Z,1936.00
2019-03-08T12:45:28.477Z,1620.00
2019-03-08T12:46:28.545Z,1640.00
2019-03-08T12:47:28.427Z,1568.00
2019-03-08T12:48:28.438Z,1168.00
2019-03-08T12:49:28.424Z,984.00
2019-03-08T12:50:28.438Z,864.00
2019-03-08T12:51:32.092Z,836.00
2019-03-08T12:52:35.329Z,868.00
2019-03-08T12:53:28.352Z,956.00
2019-03-08T12:54:28.351Z,920.00
2019-03-08T12:55:28.299Z,768.00
2019-03-08T12:56:28.154Z,680.00
2019-03-08T12:57:28.174Z,628.00
2019-03-08T12:58:28.185Z,676.00
2019-03-08T12:59:28.097Z,920.00
2019-03-08T13:00:28.063Z,1144.00
2019-03-08T13:01:28.028Z,1084.00
2019-03-08T13:02:28.112Z,1104.00
2019-03-08T13:03:27.967Z,1296.00
2019-03-08T13:04:27.954Z,1248.00
2019-03-08T13:05:27.918Z,880.00
2019-03-08T13:06:27.886Z,788.00
2019-03-08T13:07:28.967Z,1004.00
2019-03-08T13:08:27.827Z,1516.00
2019-03-08T13:09:27.894Z,2456.00
2019-03-08T13:10:27.916Z,2716.00
2019-03-08T13:11:33.142Z,2312.00
2019-03-08T13:12:27.812Z,2104.00
2019-03-08T13:13:28.792Z,2100.00
2019-03-08T13:14:27.668Z,1728.00
2019-03-08T13:15:27.699Z,1676.00
2019-03-08T13:16:27.615Z,1576.00
2019-03-08T13:17:28.681Z,1516.00
2019-03-08T13:18:27.604Z,1448.00
2019-03-08T13:19:27.580Z,1460.00
2019-03-08T13:20:27.504Z,1428.00
2019-03-08T13:21:27.545Z,1420.00
2019-03-08T13:22:27.451Z,1412.00
2019-03-08T13:23:27.427Z,1416.00
2019-03-08T13:24:27.426Z,1416.00
2019-03-08T13:25:28.528Z,1420.00
2019-03-08T13:26:27.337Z,1432.00
2019-03-08T13:27:27.297Z,1460.00
2019-03-08T13:28:27.344Z,1512.00
2019-03-08T13:29:28.305Z,1584.00
2019-03-08T13:30:27.220Z,1708.00
2019-03-08T13:31:28.198Z,1888.00
2019-03-08T13:32:27.144Z,2024.00
2019-03-08T13:33:27.186Z,2600.00
2019-03-08T13:34:27.123Z,2436.00
2019-03-08T13:35:29.163Z,2772.00
2019-03-08T13:36:27.070Z,3240.00
2019-03-08T13:37:27.161Z,2912.00
2019-03-08T13:38:26.979Z,2760.00
2019-03-08T13:39:27.027Z,2764.00
2019-03-08T13:40:26.919Z,2652.00
2019-03-08T13:41:26.923Z,2892.00
2019-03-08T13:42:26.874Z,3208.00
2019-03-08T13:43:27.099Z,2648.00
2019-03-08T13:45:26.819Z,3588.00
2019-03-08T13:46:28.819Z,3836.00
2019-03-08T13:47:26.727Z,4044.00
2019-03-08T13:48:27.816Z,3428.00
2019-03-08T13:49:26.750Z,3340.00
2019-03-08T13:50:26.654Z,3804.00
2019-03-08T13:51:27.757Z,3204.00
2019-03-08T13:52:26.582Z,2120.00
2019-03-08T13:53:26.611Z,2008.00
2019-03-08T13:54:26.527Z,2468.00
2019-03-08T13:55:26.548Z,3516.00
2019-03-08T13:56:26.476Z,4608.00
2019-03-08T13:57:26.556Z,4124.00
2019-03-08T13:58:26.416Z,2760.00
2019-03-08T13:59:26.448Z,1844.00
2019-03-08T14:00:26.369Z,1328.00
2019-03-08T14:01:26.356Z,1140.00
2019-03-08T14:02:26.348Z,1048.00
2019-03-08T14:03:26.381Z,968.00
2019-03-08T14:04:26.251Z,936.00
2019-03-08T14:05:26.300Z,912.00
2019-03-08T14:06:26.201Z,960.00
2019-03-08T14:07:26.187Z,1116.00
2019-03-08T14:08:26.168Z,1364.00
2019-03-08T14:09:26.222Z,1520.00
2019-03-08T14:10:26.118Z,1568.00
2019-03-08T14:11:26.115Z,1708.00
2019-03-08T14:12:26.029Z,2128.00
2019-03-08T14:13:27.058Z,2408.00
2019-03-08T14:14:25.963Z,2288.00
2019-03-08T14:15:26.039Z,2292.00
2019-03-08T14:16:25.900Z,2152.00
2019-03-08T14:17:25.969Z,2368.00
2019-03-08T14:18:25.866Z,2376.00
2019-03-08T14:19:25.821Z,1876.00
2019-03-08T14:20:25.789Z,1308.00
2019-03-08T14:21:25.779Z,1164.00
2019-03-08T14:22:25.802Z,1260.00
2019-03-08T14:23:25.776Z,1344.00
2019-03-08T14:24:25.721Z,1460.00
2019-03-08T14:25:25.741Z,1368.00
2019-03-08T14:26:25.635Z,1132.00
2019-03-08T14:27:25.667Z,1040.00
2019-03-08T14:28:25.570Z,952.00
2019-03-08T14:29:25.538Z,1064.00
2019-03-08T14:30:26.885Z,1256.00
2019-03-08T14:31:25.629Z,1424.00
2019-03-08T14:32:26.771Z,1700.00
2019-03-08T14:33:25.465Z,1876.00
2019-03-08T14:34:25.431Z,2036.00
2019-03-08T14:35:26.069Z,2224.00
2019-03-08T14:36:25.341Z,2332.00
2019-03-08T14:37:25.433Z,2548.00
2019-03-08T14:38:28.005Z,2724.00
2019-03-08T14:39:25.277Z,2772.00
2019-03-08T14:40:25.238Z,2840.00
2019-03-08T14:41:25.205Z,2344.00
2019-03-08T14:42:25.209Z,2068.00
2019-03-08T14:43:25.167Z,1800.00
2019-03-08T14:44:26.367Z,1428.00
2019-03-08T14:45:25.122Z,1136.00
2019-03-08T14:46:25.119Z,1008.00
2019-03-08T14:47:25.037Z,932.00
2019-03-08T14:48:25.039Z,888.00
2019-03-08T14:49:25.096Z,964.00
2019-03-08T14:50:25.091Z,1084.00
2019-03-08T14:51:24.945Z,1104.00
2019-03-08T14:52:25.071Z,1148.00
2019-03-08T14:53:28.519Z,1284.00
2019-03-08T14:54:24.884Z,1468.00
2019-03-08T14:55:24.853Z,1472.00
2019-03-08T14:56:24.795Z,1444.00
2019-03-08T14:57:27.383Z,1616.00
2019-03-08T14:58:24.732Z,1668.00
2019-03-08T14:59:24.848Z,1656.00
2019-03-08T15:00:25.356Z,1616.00
2019-03-08T15:01:24.800Z,1496.00
2019-03-08T15:02:24.623Z,1636.00
2019-03-08T15:03:24.836Z,1648.00
2019-03-08T15:04:24.553Z,1620.00
2019-03-08T15:05:24.534Z,1672.00
2019-03-08T15:06:27.996Z,2024.00
2019-03-08T15:07:24.623Z,1840.00
2019-03-08T15:08:24.452Z,1800.00
2019-03-08T15:09:24.410Z,1736.00
2019-03-08T15:10:24.412Z,1556.00
2019-03-08T15:11:24.776Z,1516.00
2019-03-08T15:12:24.428Z,1264.00
2019-03-08T15:13:25.764Z,1260.00
2019-03-08T15:14:24.263Z,1136.00
2019-03-08T15:15:24.366Z,1156.00
2019-03-08T15:16:24.254Z,1160.00
2019-03-08T15:17:24.260Z,1200.00
2019-03-08T15:18:25.877Z,1432.00
2019-03-08T15:19:24.160Z,1520.00
2019-03-08T15:20:24.106Z,1780.00
2019-03-08T15:21:24.176Z,2012.00
2019-03-08T15:22:24.127Z,1532.00
2019-03-08T15:23:24.194Z,1244.00
2019-03-08T15:24:24.003Z,1160.00
2019-03-08T15:25:23.960Z,1112.00
2019-03-08T15:26:23.932Z,1076.00
2019-03-08T15:27:24.016Z,948.00
2019-03-08T15:28:23.924Z,880.00
2019-03-08T15:29:23.855Z,856.00
2019-03-08T15:30:23.833Z,888.00
2019-03-08T15:31:23.789Z,928.00
2019-03-08T15:32:23.771Z,1048.00
2019-03-08T15:33:23.736Z,1132.00
2019-03-08T15:34:23.705Z,1168.00
2019-03-08T15:35:23.691Z,1144.00
2019-03-08T15:36:23.731Z,1368.00
2019-03-08T15:37:23.631Z,1152.00
2019-03-08T15:38:23.619Z,1204.00
2019-03-08T15:39:23.592Z,1108.00
2019-03-08T15:40:23.538Z,1156.00
2019-03-08T15:41:25.135Z,1104.00
2019-03-08T15:42:23.489Z,1184.00
2019-03-08T15:43:23.460Z,1156.00
2019-03-08T15:44:24.515Z,1052.00
2019-03-08T15:45:23.399Z,1040.00
2019-03-08T15:46:23.503Z,908.00
2019-03-08T15:47:24.061Z,848.00
2019-03-08T15:48:23.316Z,804.00
2019-03-08T15:49:26.650Z,792.00
2019-03-08T15:50:23.258Z,792.00
2019-03-08T15:51:25.377Z,812.00
2019-03-08T15:52:23.266Z,788.00
2019-03-08T15:53:23.179Z,756.00
2019-03-08T15:54:23.151Z,820.00
2019-03-08T15:55:23.125Z,816.00